Time;durP1;ratioP1;P1;durP2;ratioP2;P2;SDS_P1;SDS_P2;PMS_P1;PMS_P2;Temp;Humidity;BMP_temperature;BMP_pressure;BME280_temperature;BME280_humidity;BME280_pressure;Samples;Min_cycle;Max_cycle;Signal;HPM_P1;HPM_P2
2021/04/15 00:00:55;;;;;;;;;;;;;;;6.37;60.79;102367.56;5051721;28;19920;-72
2021/04/15 00:03:41;;;;;;;;;;;;;;;6.40;60.81;102370.63;5054133;28;19928;-67
2021/04/15 00:06:28;;;;;;;;;;;;;;;6.35;61.00;102362.31;5053652;28;19921;-70
2021/04/15 00:08:55;;;;;;;;;;;;;;;6.44;61.03;102362.75;5054067;28;19927;-71
2021/04/15 00:11:24;;;;;;;;;;;;;;;6.24;61.83;102365.13;5054533;28;19947;-71
2021/04/15 00:13:51;;;;;;;;;;;;;;;6.41;60.97;102357.78;5054570;28;19924;-68
2021/04/15 00:16:18;;;;;;;;;;;;;;;6.43;60.90;102356.44;5054553;28;20303;-69
2021/04/15 00:18:45;;;;;;;;;;;;;;;6.53;60.57;102355.81;5069278;28;19928;-71
2021/04/15 00:21:12;;;;;;;;;;;;;;;6.34;61.19;102347.00;5054577;28;19928;-71
2021/04/15 00:23:38;;;;;;;;;;;;;;;6.10;62.28;102350.06;5054166;28;19921;-68
2021/04/15 00:26:07;;;;;;;;;;;;;;;6.22;61.64;102345.38;5053722;28;19920;-67
2021/04/15 00:28:33;;;;;;;;;;;;;;;6.35;61.88;102353.28;5054821;28;20280;-68
2021/04/15 00:31:01;;;;;;;;;;;;;;;6.12;62.67;102358.88;5069229;28;19928;-68
2021/04/15 00:33:28;;;;;;;;;;;;;;;6.27;61.76;102357.25;5053793;28;19920;-71
2021/04/15 00:36:16;;;;;;;;;;;;;;;6.26;62.37;102338.34;4992217;28;20296;-69
2021/04/15 00:38:46;;;;;;;;;;;;;;;6.29;62.03;102346.91;5045502;28;19971;-70
2021/04/15 00:41:16;;;;;;;;;;;;;;;6.26;61.93;102341.91;5068645;28;19928;-69
2021/04/15 00:43:44;;;;;;;;;;;;;;;6.23;62.01;102347.88;5053504;28;19924;-67
2021/04/15 00:46:20;;;;;;;;;;;;;;;6.24;62.52;102338.56;5053826;28;20421;-67
2021/04/15 00:48:50;;;;;;;;;;;;;;;6.21;62.31;102347.28;5052669;28;19985;-66
2021/04/15 00:51:36;;;;;;;;;;;;;;;6.23;62.22;102336.94;5052113;28;19924;-67
2021/04/15 00:54:04;;;;;;;;;;;;;;;5.94;63.20;102335.28;5035640;28;19921;-66
2021/04/15 00:57:01;;;;;;;;;;;;;;;6.10;62.86;102339.94;5051693;28;19981;-70
2021/04/15 00:59:28;;;;;;;;;;;;;;;6.24;62.33;102337.75;5034782;28;19921;-69
2021/04/15 01:01:55;;;;;;;;;;;;;;;6.18;62.46;102350.50;5053937;28;19928;-67
2021/04/15 01:04:22;;;;;;;;;;;;;;;6.14;62.54;102335.66;5053026;28;19921;-67
2021/04/15 01:06:49;;;;;;;;;;;;;;;5.84;63.18;102348.72;5052982;28;19921;-67
2021/04/15 01:09:17;;;;;;;;;;;;;;;6.04;62.86;102343.66;5054219;28;19920;-68
2021/04/15 01:12:07;;;;;;;;;;;;;;;6.06;62.90;102341.53;5038844;28;19925;-69
2021/04/15 01:14:42;;;;;;;;;;;;;;;5.94;63.43;102348.94;5053059;28;20280;-71
2021/04/15 01:17:14;;;;;;;;;;;;;;;5.91;63.21;102343.94;5035732;28;19924;-69
2021/04/15 01:20:00;;;;;;;;;;;;;;;5.89;63.60;102342.53;5018440;28;19921;-70
2021/04/15 01:22:45;;;;;;;;;;;;;;;5.85;63.64;102333.16;5035337;28;19928;-68
2021/04/15 01:25:15;;;;;;;;;;;;;;;5.77;64.04;102337.06;5052149;28;19931;-73
2021/04/15 01:27:48;;;;;;;;;;;;;;;5.94;63.49;102340.75;5053450;28;19932;-72
2021/04/15 01:30:33;;;;;;;;;;;;;;;5.72;64.09;102329.59;5034967;28;19932;-69
2021/04/15 01:33:13;;;;;;;;;;;;;;;5.53;64.91;102335.47;5053386;28;19920;-70
2021/04/15 01:39:46;;;;;;;;;;;;;;;5.81;63.81;102337.41;5052852;28;19924;-65
2021/04/15 01:42:14;;;;;;;;;;;;;;;5.78;63.88;102344.19;5033985;28;20291;-70
2021/04/15 01:44:49;;;;;;;;;;;;;;;5.96;63.39;102338.59;5034411;28;19921;-68
2021/04/15 01:47:20;;;;;;;;;;;;;;;5.91;63.40;102338.47;5052787;28;19921;-67
2021/04/15 01:49:49;;;;;;;;;;;;;;;5.68;64.30;102333.88;5052954;28;20394;-68
2021/04/15 01:56:37;;;;;;;;;;;;;;;5.49;65.55;102334.31;5052671;28;19927;-66
2021/04/15 01:59:08;;;;;;;;;;;;;;;5.51;65.37;102338.44;5035168;28;19920;-70
2021/04/15 02:01:35;;;;;;;;;;;;;;;5.47;65.45;102339.16;5035441;28;20358;-72
2021/04/15 02:04:04;;;;;;;;;;;;;;;5.54;65.50;102337.94;5034887;28;19932;-69
2021/04/15 02:06:50;;;;;;;;;;;;;;;5.59;65.00;102334.50;5037750;28;19916;-74
2021/04/15 02:09:16;;;;;;;;;;;;;;;5.70;64.79;102334.47;5034930;28;19927;-73
2021/04/15 02:11:47;;;;;;;;;;;;;;;5.62;64.59;102342.22;5016349;28;19932;-70
2021/04/15 02:14:15;;;;;;;;;;;;;;;5.81;64.30;102348.34;5018498;28;19920;-74
2021/04/15 02:16:42;;;;;;;;;;;;;;;5.71;64.45;102335.31;5034774;28;19925;-68
2021/04/15 02:19:12;;;;;;;;;;;;;;;5.89;63.78;102332.44;5033932;28;19920;-72
2021/04/15 02:21:50;;;;;;;;;;;;;;;5.65;64.02;102334.38;5052626;28;19921;-73
2021/04/15 02:24:17;;;;;;;;;;;;;;;5.71;64.05;102338.03;5051841;28;19921;-67
2021/04/15 02:26:46;;;;;;;;;;;;;;;5.48;65.11;102333.47;5050376;28;20378;-71
2021/04/15 02:29:13;;;;;;;;;;;;;;;5.58;64.54;102341.88;5052317;28;19928;-70
2021/04/15 02:31:58;;;;;;;;;;;;;;;5.54;64.65;102342.59;5051559;28;19921;-75
2021/04/15 02:34:43;;;;;;;;;;;;;;;5.57;64.44;102342.97;5034603;28;19920;-71
2021/04/15 02:37:17;;;;;;;;;;;;;;;5.53;64.70;102343.66;5034776;28;19921;-72
2021/04/15 02:39:45;;;;;;;;;;;;;;;5.53;64.90;102346.38;5034657;28;19927;-74
2021/04/15 02:42:13;;;;;;;;;;;;;;;5.58;64.63;102347.34;5019296;28;20398;-74
2021/04/15 02:44:48;;;;;;;;;;;;;;;5.71;64.17;102352.56;5036142;28;19946;-71
2021/04/15 02:47:17;;;;;;;;;;;;;;;5.83;63.44;102349.81;5034801;28;19920;-69
2021/04/15 02:49:47;;;;;;;;;;;;;;;5.66;63.52;102346.97;5035168;28;19921;-70
2021/04/15 02:52:20;;;;;;;;;;;;;;;5.75;63.96;102344.69;5032731;28;20319;-69
2021/04/15 02:54:48;;;;;;;;;;;;;;;5.83;63.50;102343.50;5036133;28;19921;-68
2021/04/15 02:57:17;;;;;;;;;;;;;;;5.62;64.02;102344.94;5037656;28;19928;-74
2021/04/15 02:59:47;;;;;;;;;;;;;;;5.55;64.64;102347.81;5071268;28;19928;-69
2021/04/15 03:02:15;;;;;;;;;;;;;;;5.47;64.48;102339.97;5054819;28;20376;-67
2021/04/15 03:04:42;;;;;;;;;;;;;;;5.70;64.05;102347.31;5021303;28;20287;-67
2021/04/15 03:07:09;;;;;;;;;;;;;;;5.61;64.29;102348.78;5037386;28;19921;-68
2021/04/15 03:09:36;;;;;;;;;;;;;;;5.46;64.71;102351.16;5020720;28;19928;-70
2021/04/15 03:12:12;;;;;;;;;;;;;;;5.70;64.37;102350.06;5038200;28;20283;-67
2021/04/15 03:14:48;;;;;;;;;;;;;;;5.38;65.26;102344.19;5052905;28;19920;-72
2021/04/15 03:17:14;;;;;;;;;;;;;;;5.40;65.87;102346.66;5037124;28;20256;-70
2021/04/15 03:19:42;;;;;;;;;;;;;;;5.54;65.27;102343.41;5069808;28;19927;-69
2021/04/15 03:22:13;;;;;;;;;;;;;;;5.49;65.62;102342.50;5038060;28;20283;-69
2021/04/15 03:24:41;;;;;;;;;;;;;;;5.63;64.91;102341.16;5037671;28;19921;-70
2021/04/15 03:27:19;;;;;;;;;;;;;;;5.56;64.86;102345.94;5037518;28;20279;-71
2021/04/15 03:29:45;;;;;;;;;;;;;;;5.63;64.87;102341.16;5036767;28;19921;-72
2021/04/15 03:32:12;;;;;;;;;;;;;;;5.52;64.84;102342.84;5055142;28;19943;-72
2021/04/15 03:34:39;;;;;;;;;;;;;;;5.16;66.70;102354.03;5052901;28;20360;-71
2021/04/15 03:37:33;;;;;;;;;;;;;;;4.92;67.59;102346.91;5054464;28;19941;-69
2021/04/15 03:40:00;;;;;;;;;;;;;;;5.03;67.82;102345.25;5035083;28;19939;-70
2021/04/15 03:42:34;;;;;;;;;;;;;;;5.16;67.29;102348.56;5036814;28;19920;-75
2021/04/15 03:45:05;;;;;;;;;;;;;;;5.29;66.91;102352.97;5054767;28;19921;-69
2021/04/15 03:47:38;;;;;;;;;;;;;;;5.30;66.79;102360.09;5035005;28;19921;-69
2021/04/15 03:50:09;;;;;;;;;;;;;;;5.14;67.44;102361.66;5037019;28;19921;-70
2021/04/15 03:52:54;;;;;;;;;;;;;;;5.38;66.86;102367.94;5036631;28;19928;-71
2021/04/15 03:55:27;;;;;;;;;;;;;;;4.91;68.07;102364.38;5055100;28;19921;-72
2021/04/15 03:58:04;;;;;;;;;;;;;;;4.89;68.49;102371.13;5039828;28;19921;-75
2021/04/15 04:00:33;;;;;;;;;;;;;;;4.86;68.40;102372.44;5038194;28;20361;-71
2021/04/15 04:03:01;;;;;;;;;;;;;;;4.64;69.47;102365.03;5036741;28;19928;-69
2021/04/15 04:05:28;;;;;;;;;;;;;;;4.67;69.48;102380.94;5036594;28;19921;-74
2021/04/15 04:07:56;;;;;;;;;;;;;;;4.69;69.65;102374.16;5054287;28;19921;-72
2021/04/15 04:10:26;;;;;;;;;;;;;;;4.91;69.13;102371.72;5054374;28;19920;-70
2021/04/15 04:13:01;;;;;;;;;;;;;;;4.99;69.06;102379.53;5055128;28;20387;-71
2021/04/15 04:15:34;;;;;;;;;;;;;;;5.08;68.11;102367.22;5004219;28;19924;-67
2021/04/15 04:18:01;;;;;;;;;;;;;;;5.05;68.21;102374.00;5036692;28;19920;-73
2021/04/15 04:20:33;;;;;;;;;;;;;;;4.40;70.56;102369.59;5054380;28;19920;-73
2021/04/15 04:23:20;;;;;;;;;;;;;;;4.50;70.88;102372.56;5054514;28;20356;-75
2021/04/15 04:25:59;;;;;;;;;;;;;;;4.33;71.51;102382.47;5053495;28;19921;-71
2021/04/15 04:28:32;;;;;;;;;;;;;;;4.44;70.74;102376.25;5036060;28;19928;-71
2021/04/15 04:31:15;;;;;;;;;;;;;;;4.49;70.56;102385.41;5035670;28;19927;-68
2021/04/15 04:33:43;;;;;;;;;;;;;;;4.70;69.83;102383.19;5036221;28;19927;-68
2021/04/15 04:36:10;;;;;;;;;;;;;;;4.31;70.91;102373.69;5036362;28;19921;-69
2021/04/15 04:38:37;;;;;;;;;;;;;;;4.50;70.59;102383.47;5035923;28;19931;-70
2021/04/15 04:41:18;;;;;;;;;;;;;;;4.38;70.32;102374.44;5035396;28;19924;-71
2021/04/15 04:43:49;;;;;;;;;;;;;;;4.58;69.75;102385.91;5035560;28;20390;-71
2021/04/15 04:46:36;;;;;;;;;;;;;;;4.57;69.65;102387.78;5035877;28;20329;-66
2021/04/15 04:49:14;;;;;;;;;;;;;;;4.51;69.92;102393.34;5053269;28;19932;-69
2021/04/15 04:52:00;;;;;;;;;;;;;;;4.37;70.28;102386.41;5053556;28;19916;-71
2021/04/15 04:54:27;;;;;;;;;;;;;;;4.26;70.67;102387.19;5035383;28;20279;-67
2021/04/15 04:57:05;;;;;;;;;;;;;;;4.51;69.79;102391.47;5035294;28;19927;-69
2021/04/15 04:59:34;;;;;;;;;;;;;;;4.31;70.54;102380.00;5053404;28;19920;-69
2021/04/15 05:02:00;;;;;;;;;;;;;;;4.73;69.58;102391.75;5036003;28;19928;-71
2021/04/15 05:04:32;;;;;;;;;;;;;;;4.75;68.93;102386.03;5051457;28;20363;-73
2021/04/15 05:07:02;;;;;;;;;;;;;;;4.69;68.96;102393.25;5035117;28;19928;-71
2021/04/15 05:10:20;;;;;;;;;;;;;;;4.52;68.93;102392.28;5043299;28;20326;-74
2021/04/15 05:12:48;;;;;;;;;;;;;;;4.68;68.66;102394.34;5019221;28;19928;-72
2021/04/15 05:15:15;;;;;;;;;;;;;;;4.47;69.07;102395.72;5031418;28;19980;-68
2021/04/15 05:17:42;;;;;;;;;;;;;;;4.63;68.52;102399.69;5025264;28;20276;-70
2021/04/15 05:20:17;;;;;;;;;;;;;;;4.48;68.74;102397.38;5053474;28;20390;-73
2021/04/15 05:27:02;;;;;;;;;;;;;;;4.51;68.20;102396.09;5052925;28;19923;-74
2021/04/15 05:29:30;;;;;;;;;;;;;;;4.58;68.43;102394.91;5035397;28;19920;-68
2021/04/15 05:31:57;;;;;;;;;;;;;;;4.56;68.12;102402.50;5036261;28;19932;-70
2021/04/15 05:34:30;;;;;;;;;;;;;;;4.46;68.32;102409.59;5036499;28;20402;-71
2021/04/15 05:37:07;;;;;;;;;;;;;;;4.65;68.21;102415.81;5068681;28;19920;-66
2021/04/15 05:43:52;;;;;;;;;;;;;;;4.80;67.48;102414.31;5052231;28;20291;-67
2021/04/15 05:46:20;;;;;;;;;;;;;;;4.83;67.15;102413.03;5035149;28;19921;-67
2021/04/15 05:48:47;;;;;;;;;;;;;;;4.63;67.57;102417.94;5018172;28;19921;-69
2021/04/15 05:51:24;;;;;;;;;;;;;;;4.79;67.16;102422.72;5034896;28;20355;-69
2021/04/15 05:53:52;;;;;;;;;;;;;;;4.69;67.26;102422.47;5035243;28;19928;-69
2021/04/15 05:56:24;;;;;;;;;;;;;;;4.82;66.89;102420.38;5051834;28;19921;-70
2021/04/15 05:59:09;;;;;;;;;;;;;;;4.42;68.15;102438.38;5034622;28;19921;-70
2021/04/15 06:01:39;;;;;;;;;;;;;;;4.42;68.12;102441.13;5052444;28;19921;-72
2021/04/15 06:04:31;;;;;;;;;;;;;;;4.73;67.40;102434.56;5052722;28;19943;-69
2021/04/15 06:07:18;;;;;;;;;;;;;;;4.91;66.76;102438.09;5009908;28;19944;-69
2021/04/15 06:09:45;;;;;;;;;;;;;;;4.83;66.56;102443.03;4994476;28;19921;-71
2021/04/15 06:12:15;;;;;;;;;;;;;;;5.08;66.01;102443.69;5010809;28;19922;-67
2021/04/15 06:14:44;;;;;;;;;;;;;;;5.00;66.26;102435.84;4994289;28;19922;-72
2021/04/15 06:17:14;;;;;;;;;;;;;;;5.12;65.71;102442.16;5009895;28;19921;-69
2021/04/15 06:19:42;;;;;;;;;;;;;;;5.23;65.41;102441.34;5010270;28;19921;-65
2021/04/15 06:22:29;;;;;;;;;;;;;;;4.91;66.17;102439.97;5010664;28;19921;-74
2021/04/15 06:25:04;;;;;;;;;;;;;;;4.61;66.66;102445.47;4994821;28;19921;-69
2021/04/15 06:27:49;;;;;;;;;;;;;;;4.81;66.52;102450.63;4997191;28;19917;-69
2021/04/15 06:30:29;;;;;;;;;;;;;;;4.87;66.26;102452.41;5013853;28;19921;-74
2021/04/15 06:33:01;;;;;;;;;;;;;;;5.18;65.51;102450.22;4997821;28;19929;-73
2021/04/15 06:35:31;;;;;;;;;;;;;;;4.86;66.01;102454.34;4996994;28;19945;-71
2021/04/15 06:42:15;;;;;;;;;;;;;;;4.69;66.54;102447.84;5013479;28;19924;-70
2021/04/15 06:44:47;;;;;;;;;;;;;;;4.72;66.64;102452.88;5045598;28;19921;-70
2021/04/15 06:47:26;;;;;;;;;;;;;;;4.58;66.87;102456.84;5038066;28;19932;-71
2021/04/15 06:49:56;;;;;;;;;;;;;;;4.76;66.97;102451.31;5055547;28;19920;-74
2021/04/15 06:52:26;;;;;;;;;;;;;;;5.00;66.14;102453.06;5053907;28;19932;-71
2021/04/15 06:59:03;;;;;;;;;;;;;;;4.68;66.76;102464.47;5054890;28;20282;-69
2021/04/15 07:01:41;;;;;;;;;;;;;;;4.55;67.01;102463.59;5054917;28;19921;-67
2021/04/15 07:04:11;;;;;;;;;;;;;;;4.56;67.14;102467.16;5054312;28;20236;-69
2021/04/15 07:06:47;;;;;;;;;;;;;;;4.70;66.54;102452.25;5068764;28;19920;-69
2021/04/15 07:09:16;;;;;;;;;;;;;;;4.86;66.09;102457.06;5037071;28;19928;-71
2021/04/15 07:12:20;;;;;;;;;;;;;;;4.80;66.33;102460.72;5055714;28;20331;-71
2021/04/15 07:15:13;;;;;;;;;;;;;;;4.88;65.67;102459.56;5054950;28;19940;-70
2021/04/15 07:17:49;;;;;;;;;;;;;;;4.79;65.84;102453.59;5052842;28;19927;-70
2021/04/15 07:20:24;;;;;;;;;;;;;;;4.83;65.98;102456.69;5037227;28;20367;-71
2021/04/15 07:27:15;;;;;;;;;;;;;;;4.91;65.65;102459.94;5054895;28;19921;-70
2021/04/15 07:29:44;;;;;;;;;;;;;;;5.12;65.22;102453.06;5055222;28;19921;-77
2021/04/15 07:32:13;;;;;;;;;;;;;;;5.21;64.92;102459.88;5056311;28;19921;-76
2021/04/15 07:35:05;;;;;;;;;;;;;;;5.48;63.50;102450.13;5053840;28;19920;-73
2021/04/15 07:37:55;;;;;;;;;;;;;;;5.63;62.91;102458.69;5053533;28;19920;-71
2021/04/15 07:44:47;;;;;;;;;;;;;;;5.26;63.71;102451.78;5035374;28;20368;-69
2021/04/15 07:47:16;;;;;;;;;;;;;;;5.55;63.40;102456.31;5035284;28;19921;-72
2021/04/15 07:49:56;;;;;;;;;;;;;;;5.59;63.19;102450.16;5036475;28;20269;-71
2021/04/15 07:52:41;;;;;;;;;;;;;;;5.78;62.52;102453.56;5054358;28;19916;-71
2021/04/15 07:59:37;;;;;;;;;;;;;;;6.01;63.11;102456.31;5054234;28;20284;-71
2021/04/15 08:02:05;;;;;;;;;;;;;;;6.29;61.84;102461.84;5053186;28;20284;-67
2021/04/15 08:05:16;;;;;;;;;;;;;;;6.31;61.31;102454.19;5054027;28;19924;-67
2021/04/15 08:08:04;;;;;;;;;;;;;;;6.26;60.24;102462.28;5034970;28;20279;-71
2021/04/15 08:10:50;;;;;;;;;;;;;;;6.55;59.94;102453.06;5069073;28;20292;-67
2021/04/15 08:13:36;;;;;;;;;;;;;;;6.75;58.88;102461.63;5049889;28;19920;-67
2021/04/15 08:16:09;;;;;;;;;;;;;;;6.87;58.93;102453.34;5052467;28;19921;-68
2021/04/15 08:18:45;;;;;;;;;;;;;;;6.49;59.32;102454.00;5055062;28;20292;-71
2021/04/15 08:21:27;;;;;;;;;;;;;;;6.81;59.22;102463.41;5036158;28;19920;-67
2021/04/15 08:28:21;;;;;;;;;;;;;;;6.45;59.54;102465.72;5052410;28;20257;-66
2021/04/15 08:30:57;;;;;;;;;;;;;;;6.49;58.95;102467.69;5052568;28;19944;-65
2021/04/15 08:33:27;;;;;;;;;;;;;;;6.54;59.01;102472.44;5052330;28;19920;-68
2021/04/15 08:36:12;;;;;;;;;;;;;;;6.56;58.61;102462.91;5055387;28;19921;-70
2021/04/15 08:38:58;;;;;;;;;;;;;;;6.74;58.26;102473.69;5055209;28;19920;-68
2021/04/15 08:46:18;;;;;;;;;;;;;;;7.06;56.50;102470.41;5053292;28;20027;-67
2021/04/15 08:49:03;;;;;;;;;;;;;;;7.51;55.34;102466.50;4992138;28;19932;-66
2021/04/15 08:52:04;;;;;;;;;;;;;;;7.55;54.34;102472.34;4991377;28;19965;-65
2021/04/15 08:58:51;;;;;;;;;;;;;;;7.11;55.87;102471.34;4992367;28;19925;-64
2021/04/15 09:01:17;;;;;;;;;;;;;;;7.29;55.00;102473.81;4991756;28;19922;-64
2021/04/15 09:03:52;;;;;;;;;;;;;;;7.23;55.42;102474.81;4991265;28;19936;-68
2021/04/15 09:06:22;;;;;;;;;;;;;;;7.27;55.10;102470.50;4975320;28;20336;-66
2021/04/15 09:09:07;;;;;;;;;;;;;;;7.05;55.15;102474.22;4992017;28;19946;-67
2021/04/15 09:15:52;;;;;;;;;;;;;;;7.28;54.42;102466.69;4989428;28;19917;-70
2021/04/15 09:18:26;;;;;;;;;;;;;;;7.32;54.44;102470.56;4957476;28;20316;-70
2021/04/15 09:20:53;;;;;;;;;;;;;;;7.62;53.12;102472.97;4973722;28;19921;-65
2021/04/15 09:23:22;;;;;;;;;;;;;;;7.65;52.54;102475.22;4989503;28;19950;-67
2021/04/15 09:25:55;;;;;;;;;;;;;;;7.59;52.37;102477.06;5001902;28;20253;-64
2021/04/15 09:28:43;;;;;;;;;;;;;;;7.70;52.07;102470.66;5031853;28;19924;-64
2021/04/15 09:31:50;;;;;;;;;;;;;;;7.85;51.38;102481.00;5032891;28;19921;-68
2021/04/15 09:34:32;;;;;;;;;;;;;;;7.44;51.47;102470.50;5026882;28;19921;-68
2021/04/15 09:37:13;;;;;;;;;;;;;;;7.75;51.34;102461.66;5032276;28;20229;-64
2021/04/15 09:44:08;;;;;;;;;;;;;;;7.72;51.64;102473.13;5031455;28;19916;-67
2021/04/15 09:46:46;;;;;;;;;;;;;;;7.69;50.73;102462.66;5032631;28;19928;-68
2021/04/15 09:49:16;;;;;;;;;;;;;;;7.88;50.43;102464.00;5020000;28;19921;-71
2021/04/15 09:51:43;;;;;;;;;;;;;;;7.71;50.69;102458.59;5035626;28;19924;-67
2021/04/15 09:54:12;;;;;;;;;;;;;;;7.82;49.64;102452.16;5043640;28;19927;-67
2021/04/15 09:56:44;;;;;;;;;;;;;;;8.05;49.58;102448.38;5051853;28;19936;-68
2021/04/15 09:59:27;;;;;;;;;;;;;;;8.30;49.01;102456.94;5034245;28;19920;-70
2021/04/15 10:02:00;;;;;;;;;;;;;;;8.31;48.25;102460.50;5032943;28;19928;-65
2021/04/15 10:04:38;;;;;;;;;;;;;;;8.14;47.82;102441.34;5030863;28;20002;-67
2021/04/15 10:07:09;;;;;;;;;;;;;;;8.11;48.36;102447.31;5034187;28;19920;-67
2021/04/15 10:09:47;;;;;;;;;;;;;;;7.99;48.73;102444.72;5051086;28;19992;-67
2021/04/15 10:13:13;;;;;;;;;;;;;;;7.76;49.36;102446.84;5051670;28;19923;-66
2021/04/15 10:15:46;;;;;;;;;;;;;;;8.18;48.67;102428.75;5034018;28;19921;-63
2021/04/15 10:18:17;;;;;;;;;;;;;;;8.18;47.81;102434.25;5034334;28;20391;-66
2021/04/15 10:21:09;;;;;;;;;;;;;;;8.24;48.37;102426.94;5033468;28;19920;-66
2021/04/15 10:23:44;;;;;;;;;;;;;;;8.61;47.15;102431.47;5050637;28;19921;-67
2021/04/15 10:30:22;;;;;;;;;;;;;;;9.10;45.50;102422.06;5050697;28;19927;-67
2021/04/15 10:33:10;;;;;;;;;;;;;;;9.13;45.21;102416.03;5050967;28;19921;-68
2021/04/15 10:35:56;;;;;;;;;;;;;;;8.77;44.52;102416.81;5050165;28;20269;-69
2021/04/15 10:38:41;;;;;;;;;;;;;;;8.46;44.39;102427.72;5050269;28;19921;-67
2021/04/15 10:41:11;;;;;;;;;;;;;;;8.49;44.24;102430.78;5046924;28;19928;-65
2021/04/15 10:43:56;;;;;;;;;;;;;;;8.45;44.32;102415.09;5050173;28;19921;-67
2021/04/15 10:46:43;;;;;;;;;;;;;;;8.55;43.82;102424.28;5049852;28;19928;-66
2021/04/15 10:49:19;;;;;;;;;;;;;;;8.65;43.21;102402.41;5048791;28;19921;-67
2021/04/15 10:51:52;;;;;;;;;;;;;;;8.94;42.10;102416.72;5032526;28;19935;-68
2021/04/15 10:54:28;;;;;;;;;;;;;;;8.78;42.05;102413.00;5016268;28;20061;-69
2021/04/15 10:56:55;;;;;;;;;;;;;;;8.95;41.94;102401.88;5050320;28;19921;-69
2021/04/15 10:59:35;;;;;;;;;;;;;;;9.07;42.30;102403.34;5032284;28;19940;-68
2021/04/15 11:02:16;;;;;;;;;;;;;;;9.25;39.64;102384.78;5050305;28;19921;-69
2021/04/15 11:04:43;;;;;;;;;;;;;;;9.36;38.92;102392.84;5048666;28;19924;-67
2021/04/15 11:07:14;;;;;;;;;;;;;;;9.43;37.93;102387.13;5033401;28;19928;-67
2021/04/15 11:09:42;;;;;;;;;;;;;;;9.64;37.98;102391.66;5033864;28;19940;-68
2021/04/15 11:12:30;;;;;;;;;;;;;;;9.47;35.82;102378.06;5036527;28;19936;-69
2021/04/15 11:15:22;;;;;;;;;;;;;;;9.58;35.33;102367.94;5032538;28;19920;-69
2021/04/15 11:17:50;;;;;;;;;;;;;;;9.89;36.08;102373.34;5053595;28;19921;-69
2021/04/15 11:20:24;;;;;;;;;;;;;;;9.76;36.66;102382.06;5035328;28;19925;-69
2021/04/15 11:22:59;;;;;;;;;;;;;;;9.80;37.13;102365.84;5049454;28;19921;-70
2021/04/15 11:25:30;;;;;;;;;;;;;;;9.68;34.16;102374.34;5037256;28;20454;-69
2021/04/15 11:27:58;;;;;;;;;;;;;;;9.51;34.89;102368.19;5053017;28;19931;-73
2021/04/15 11:30:31;;;;;;;;;;;;;;;9.72;35.61;102374.63;5036717;28;19927;-69
2021/04/15 11:33:04;;;;;;;;;;;;;;;10.06;36.46;102365.69;5054253;28;19921;-64
2021/04/15 11:35:31;;;;;;;;;;;;;;;10.06;35.99;102360.19;5053944;28;19920;-67
2021/04/15 11:38:18;;;;;;;;;;;;;;;9.92;35.74;102372.00;5051874;28;19928;-67
2021/04/15 11:45:04;;;;;;;;;;;;;;;9.91;34.78;102362.91;5054377;28;19923;-71
2021/04/15 11:47:34;;;;;;;;;;;;;;;9.93;35.41;102366.22;5035810;28;19928;-70
2021/04/15 11:50:07;;;;;;;;;;;;;;;9.83;35.54;102363.38;5020986;28;19927;-66
2021/04/15 11:52:34;;;;;;;;;;;;;;;9.85;35.33;102350.19;5053124;28;19921;-65
2021/04/15 11:55:08;;;;;;;;;;;;;;;10.12;35.24;102347.31;5036690;28;20364;-67
2021/04/15 12:01:53;;;;;;;;;;;;;;;9.77;35.99;102350.72;5053518;28;19924;-69
2021/04/15 12:04:22;;;;;;;;;;;;;;;9.86;36.09;102338.09;5038171;28;19928;-72
2021/04/15 12:06:56;;;;;;;;;;;;;;;10.00;35.85;102335.69;5055434;28;19921;-73
2021/04/15 12:09:49;;;;;;;;;;;;;;;10.07;35.82;102330.75;5040896;28;19924;-67
2021/04/15 12:12:18;;;;;;;;;;;;;;;10.04;36.27;102320.28;5038625;28;19921;-68
2021/04/15 12:14:47;;;;;;;;;;;;;;;10.05;35.85;102332.94;5037751;28;19927;-70
2021/04/15 12:17:27;;;;;;;;;;;;;;;9.93;34.79;102333.19;5054750;28;19920;-69
2021/04/15 12:19:54;;;;;;;;;;;;;;;9.91;34.80;102329.03;5053643;28;19920;-65
2021/04/15 12:22:26;;;;;;;;;;;;;;;9.60;34.33;102335.50;5053559;28;19920;-66
2021/04/15 12:24:56;;;;;;;;;;;;;;;9.42;33.77;102328.53;5035802;28;19920;-68
2021/04/15 12:27:30;;;;;;;;;;;;;;;9.71;33.42;102321.50;5035565;28;20386;-68
2021/04/15 12:30:05;;;;;;;;;;;;;;;9.96;33.50;102332.63;5051744;28;19925;-68
2021/04/15 12:33:06;;;;;;;;;;;;;;;9.99;33.20;102334.00;5038290;28;19923;-68
2021/04/15 12:35:53;;;;;;;;;;;;;;;9.75;34.41;102346.56;5053007;28;19928;-68
2021/04/15 12:38:27;;;;;;;;;;;;;;;9.49;35.10;102334.63;5035776;28;19928;-73
2021/04/15 12:40:58;;;;;;;;;;;;;;;9.75;35.10;102338.31;5035695;28;20395;-73
2021/04/15 12:43:29;;;;;;;;;;;;;;;9.86;35.21;102326.25;5052903;28;19921;-70
2021/04/15 12:46:21;;;;;;;;;;;;;;;10.15;34.96;102316.47;5034943;28;19916;-69
2021/04/15 12:48:54;;;;;;;;;;;;;;;10.06;35.28;102313.38;5033090;28;19920;-70
2021/04/15 12:51:25;;;;;;;;;;;;;;;10.13;34.95;102302.97;5034135;28;19920;-68
2021/04/15 12:53:53;;;;;;;;;;;;;;;10.07;35.78;102314.22;5035672;28;19920;-68
2021/04/15 13:00:33;;;;;;;;;;;;;;;9.88;36.86;102313.06;5052287;28;19924;-68
2021/04/15 13:03:07;;;;;;;;;;;;;;;9.75;37.11;102313.56;5046048;28;19920;-73
2021/04/15 13:05:37;;;;;;;;;;;;;;;9.58;37.21;102312.94;5018300;28;19920;-71
2021/04/15 13:08:22;;;;;;;;;;;;;;;9.56;38.04;102318.69;5053992;28;19920;-73
2021/04/15 13:10:48;;;;;;;;;;;;;;;9.80;37.83;102311.66;5034978;28;19968;-76
2021/04/15 13:17:39;;;;;;;;;;;;;;;9.74;35.63;102304.50;5051535;28;19924;-68
2021/04/15 13:20:26;;;;;;;;;;;;;;;9.39;35.16;102301.56;5052268;28;19920;-72
2021/04/15 13:23:08;;;;;;;;;;;;;;;9.67;35.46;102292.91;5041909;28;20403;-73
2021/04/15 13:25:50;;;;;;;;;;;;;;;10.00;35.55;102278.69;5052993;28;20348;-71
2021/04/15 13:28:21;;;;;;;;;;;;;;;10.33;34.66;102273.81;5053298;28;19951;-72
2021/04/15 13:31:06;;;;;;;;;;;;;;;10.62;34.63;102269.41;5023819;28;19917;-71
2021/04/15 13:33:34;;;;;;;;;;;;;;;10.57;34.04;102270.25;5034770;28;19936;-70
2021/04/15 13:36:01;;;;;;;;;;;;;;;10.60;33.88;102269.69;5052699;28;19921;-71
2021/04/15 13:38:35;;;;;;;;;;;;;;;10.30;34.02;102266.94;5050655;28;20395;-70
2021/04/15 13:41:15;;;;;;;;;;;;;;;10.19;34.57;102265.28;5052926;28;19921;-68
2021/04/15 13:43:55;;;;;;;;;;;;;;;10.26;34.91;102260.31;5034179;28;19921;-68
2021/04/15 13:46:21;;;;;;;;;;;;;;;10.21;34.75;102254.81;5052423;28;19955;-71
2021/04/15 13:48:54;;;;;;;;;;;;;;;10.20;34.88;102250.38;5051642;28;19929;-71
2021/04/15 13:51:22;;;;;;;;;;;;;;;10.20;34.97;102256.72;5052780;28;19931;-70
2021/04/15 13:53:50;;;;;;;;;;;;;;;9.91;35.21;102252.81;5034507;28;20360;-73
2021/04/15 13:56:30;;;;;;;;;;;;;;;10.29;35.31;102246.00;5035128;28;19931;-72
2021/04/15 13:59:03;;;;;;;;;;;;;;;10.16;35.90;102227.28;5034828;28;19920;-72
2021/04/15 14:01:30;;;;;;;;;;;;;;;10.31;35.55;102231.94;5050827;28;19921;-71
2021/04/15 14:03:58;;;;;;;;;;;;;;;10.48;33.97;102238.03;5053313;28;20376;-68
2021/04/15 14:06:25;;;;;;;;;;;;;;;10.20;33.54;102226.44;5050576;28;19928;-69
2021/04/15 14:09:02;;;;;;;;;;;;;;;10.51;33.21;102226.47;5033732;28;20287;-70
2021/04/15 14:11:42;;;;;;;;;;;;;;;10.97;32.36;102220.59;5051817;28;19927;-67
2021/04/15 14:14:18;;;;;;;;;;;;;;;10.87;33.65;102223.38;5050356;28;19944;-65
2021/04/15 14:16:45;;;;;;;;;;;;;;;10.45;35.03;102236.66;5051009;28;19921;-69
2021/04/15 14:19:38;;;;;;;;;;;;;;;10.42;35.74;102217.09;5023964;28;19921;-70
2021/04/15 14:22:06;;;;;;;;;;;;;;;10.46;35.83;102210.72;5034060;28;20407;-68
2021/04/15 14:24:36;;;;;;;;;;;;;;;10.74;35.60;102206.59;5051017;28;20370;-67
2021/04/15 14:27:04;;;;;;;;;;;;;;;11.03;35.18;102199.34;5051969;28;19921;-69
2021/04/15 14:29:38;;;;;;;;;;;;;;;11.17;34.89;102204.00;5031115;28;20371;-67
2021/04/15 14:32:08;;;;;;;;;;;;;;;10.41;33.36;102213.50;5052316;28;20449;-73
2021/04/15 14:34:36;;;;;;;;;;;;;;;10.41;32.90;102208.00;5051699;28;19936;-67
2021/04/15 14:37:07;;;;;;;;;;;;;;;10.51;32.87;102201.66;5051707;28;19928;-67
2021/04/15 14:39:38;;;;;;;;;;;;;;;10.67;32.69;102195.03;5033802;28;19936;-67
2021/04/15 14:42:10;;;;;;;;;;;;;;;10.70;32.23;102194.47;5051319;28;19920;-68
2021/04/15 14:44:39;;;;;;;;;;;;;;;10.55;32.21;102205.53;5033977;28;20344;-71